Time;durP1;ratioP1;P1;durP2;ratioP2;P2;SDS_P1;SDS_P2;PMS_P1;PMS_P2;Temp;Humidity;BMP_temperature;BMP_pressure;BME280_temperature;BME280_humidity;BME280_pressure;Samples;Min_cycle;Max_cycle;Signal;HPM_P1;HPM_P2
2023/06/10 00:01:07;;;;;;;10.07;6.15;;;;;;;20.88;98.76;101556.81;5046110;28;20379;-58
2023/06/10 00:03:32;;;;;;;11.60;6.93;;;;;;;20.82;98.64;101563.44;5045698;28;20384;-60
2023/06/10 00:05:58;;;;;;;13.63;6.45;;;;;;;20.78;98.95;101556.59;5044621;28;20126;-60
2023/06/10 00:08:24;;;;;;;12.93;6.20;;;;;;;20.75;98.73;101557.66;5045587;28;20074;-60
2023/06/10 00:10:49;;;;;;;11.02;6.07;;;;;;;20.71;99.32;101562.34;5044999;28;20514;-59
2023/06/10 00:13:16;;;;;;;8.82;6.10;;;;;;;20.70;98.34;101568.66;5045631;28;20179;-61
2023/06/10 00:15:41;;;;;;;9.57;6.15;;;;;;;20.64;98.53;101566.38;5045677;28;20166;-58
2023/06/10 00:18:09;;;;;;;9.35;5.57;;;;;;;20.66;98.00;101569.84;5045219;28;20116;-58
2023/06/10 00:20:37;;;;;;;10.37;6.03;;;;;;;20.64;98.60;101571.72;5044748;28;20383;-59
2023/06/10 00:23:03;;;;;;;9.77;6.10;;;;;;;20.54;98.97;101563.47;5045141;28;20112;-61
2023/06/10 00:25:28;;;;;;;13.65;6.10;;;;;;;20.39;99.57;101561.75;5045585;28;20051;-61
2023/06/10 00:27:55;;;;;;;8.48;6.40;;;;;;;20.39;99.36;101559.09;5045212;28;20028;-58
2023/06/10 00:30:21;;;;;;;9.60;6.15;;;;;;;20.39;99.33;101562.63;5045285;28;20388;-63
2023/06/10 00:32:46;;;;;;;7.13;6.00;;;;;;;20.41;99.00;101562.53;5045223;28;20025;-61
2023/06/10 00:35:11;;;;;;;11.65;6.78;;;;;;;20.37;99.30;101561.00;5045476;28;20028;-62
2023/06/10 00:37:37;;;;;;;6.55;5.53;;;;;;;20.32;99.15;101558.63;5044720;28;20029;-62
2023/06/10 00:40:04;;;;;;;6.80;5.57;;;;;;;20.31;99.21;101564.91;5043768;28;20029;-61
2023/06/10 00:42:29;;;;;;;8.77;5.93;;;;;;;20.26;99.04;101559.88;5045159;28;20025;-60
2023/06/10 00:44:55;;;;;;;7.32;5.88;;;;;;;20.29;98.88;101572.22;5044783;28;20027;-61
2023/06/10 00:47:21;;;;;;;14.20;6.40;;;;;;;20.16;99.23;101567.63;5045139;28;20028;-61
2023/06/10 00:49:46;;;;;;;9.38;5.95;;;;;;;20.11;99.76;101567.06;5044462;28;20078;-62
2023/06/10 00:52:12;;;;;;;11.75;5.97;;;;;;;20.07;99.33;101569.06;5043459;28;20033;-60
2023/06/10 00:54:38;;;;;;;7.20;5.15;;;;;;;20.03;99.07;101566.69;5044875;28;20024;-60
2023/06/10 00:57:04;;;;;;;12.55;5.80;;;;;;;20.07;99.01;101569.06;5044578;28;20033;-61
2023/06/10 00:59:30;;;;;;;8.35;5.70;;;;;;;20.00;98.44;101566.84;5043737;28;20047;-60
2023/06/10 01:01:56;;;;;;;7.82;6.10;;;;;;;20.03;97.85;101572.91;5044798;28;20024;-60
2023/06/10 01:04:22;;;;;;;12.75;6.63;;;;;;;19.90;98.38;101562.06;5044514;28;20451;-60
2023/06/10 01:07:01;;;;;;;9.68;5.65;;;;;;;19.86;98.54;101557.88;5043500;28;20060;-60
2023/06/10 01:09:35;;;;;;;8.43;5.45;;;;;;;19.90;98.49;101561.22;5043315;28;20039;-61
2023/06/10 01:12:08;;;;;;;8.52;5.88;;;;;;;19.82;98.32;101564.38;5044282;28;20467;-59
2023/06/10 01:14:35;;;;;;;9.68;5.60;;;;;;;19.75;98.42;101558.50;5044416;28;20021;-62
2023/06/10 01:17:01;;;;;;;10.68;6.07;;;;;;;19.74;98.67;101555.97;5044494;28;20263;-59
2023/06/10 01:19:26;;;;;;;8.20;5.43;;;;;;;19.77;97.72;101553.94;5044307;28;20032;-61
2023/06/10 01:21:51;;;;;;;12.85;5.28;;;;;;;19.74;97.52;101564.00;5043232;28;20091;-59
2023/06/10 01:24:18;;;;;;;7.97;5.43;;;;;;;19.75;97.00;101573.72;5044340;28;20045;-59
2023/06/10 01:26:43;;;;;;;12.27;4.80;;;;;;;19.73;97.12;101562.25;5042728;28;20028;-62
2023/06/10 01:29:19;;;;;;;8.65;5.38;;;;;;;19.73;96.87;101564.91;5043370;28;20021;-58
2023/06/10 01:31:52;;;;;;;10.00;5.65;;;;;;;19.68;97.30;101568.75;5044355;28;20029;-62
2023/06/10 01:34:18;;;;;;;6.88;4.78;;;;;;;19.56;98.40;101565.00;5042965;28;20617;-58
2023/06/10 01:36:48;;;;;;;8.40;5.32;;;;;;;19.52;98.19;101565.28;5042294;28;20033;-60
2023/06/10 01:39:16;;;;;;;8.75;5.28;;;;;;;19.52;98.30;101567.94;5044265;28;20025;-60
2023/06/10 01:41:41;;;;;;;6.03;5.07;;;;;;;19.50;98.03;101562.69;5043478;28;20021;-62
2023/06/10 01:44:07;;;;;;;14.05;5.40;;;;;;;19.52;97.63;101567.94;5044152;28;20093;-61
2023/06/10 01:46:32;;;;;;;8.70;5.40;;;;;;;19.47;98.17;101564.72;5044093;28;20128;-62
2023/06/10 01:48:57;;;;;;;8.90;5.68;;;;;;;19.44;97.93;101571.94;5044461;28;20025;-60
2023/06/10 01:51:23;;;;;;;6.65;4.97;;;;;;;19.36;97.70;101571.56;5046496;28;20078;-60
2023/06/10 01:53:48;;;;;;;7.85;5.00;;;;;;;19.41;97.27;101569.47;5048024;28;20390;-60
2023/06/10 01:56:17;;;;;;;9.02;4.63;;;;;;;19.38;97.35;101569.66;5047957;28;20037;-60
2023/06/10 01:58:43;;;;;;;12.15;5.20;;;;;;;19.30;97.89;101571.94;5048200;28;20033;-61
2023/06/10 02:01:09;;;;;;;9.90;4.97;;;;;;;19.32;97.48;101567.34;5048116;28;20092;-59
2023/06/10 02:03:34;;;;;;;7.57;5.18;;;;;;;19.35;96.76;101572.50;5047065;28;20459;-62
2023/06/10 02:06:00;;;;;;;10.68;5.25;;;;;;;19.26;97.52;101573.06;5047136;28;20527;-59
2023/06/10 02:08:27;;;;;;;8.15;4.82;;;;;;;19.22;97.32;101571.50;5048224;28;20163;-60
2023/06/10 02:10:52;;;;;;;13.45;4.90;;;;;;;19.17;97.62;101574.44;5047669;28;20032;-59
2023/06/10 02:13:18;;;;;;;6.20;4.78;;;;;;;19.22;96.83;101566.16;5047820;28;20025;-59
2023/06/10 02:15:43;;;;;;;6.40;4.80;;;;;;;19.26;96.07;101575.75;5047442;28;20070;-61
2023/06/10 02:18:10;;;;;;;10.05;5.30;;;;;;;19.24;96.58;101573.16;5047954;28;20079;-60
2023/06/10 02:20:35;;;;;;;8.40;5.07;;;;;;;19.15;96.69;101571.84;5047033;28;20029;-59
2023/06/10 02:23:00;;;;;;;8.05;5.57;;;;;;;19.05;97.85;101582.19;5047317;28;20484;-59
2023/06/10 02:25:26;;;;;;;12.23;5.03;;;;;;;19.03;97.61;101573.41;5047591;28;20036;-60
2023/06/10 02:27:51;;;;;;;11.55;5.45;;;;;;;19.02;97.95;101584.22;5047298;28;20025;-59
2023/06/10 02:30:16;;;;;;;7.22;4.93;;;;;;;19.06;97.74;101575.06;5047565;28;20021;-60
2023/06/10 02:32:42;;;;;;;9.82;5.10;;;;;;;19.00;97.58;101580.75;5047725;28;20859;-60
2023/06/10 02:35:08;;;;;;;11.05;5.43;;;;;;;18.94;98.22;101582.81;5047285;28;20020;-60
2023/06/10 02:37:33;;;;;;;6.22;4.78;;;;;;;18.88;98.45;101583.19;5047328;28;20033;-59
2023/06/10 02:39:58;;;;;;;6.25;4.82;;;;;;;18.82;98.90;101586.22;5047140;28;20028;-61
2023/06/10 02:42:24;;;;;;;9.25;5.20;;;;;;;18.79;99.01;101581.03;5047153;28;20643;-59
2023/06/10 02:44:49;;;;;;;10.55;5.47;;;;;;;18.81;98.21;101589.81;5047085;28;20502;-60
2023/06/10 02:47:15;;;;;;;8.50;5.18;;;;;;;18.80;97.86;101582.75;5047343;28;20037;-59
2023/06/10 02:49:40;;;;;;;8.45;5.22;;;;;;;18.78;97.97;101587.34;5048044;28;20108;-60
2023/06/10 02:52:06;;;;;;;9.90;5.10;;;;;;;18.69;98.51;101588.69;5046501;28;20377;-61
2023/06/10 02:54:32;;;;;;;8.38;5.43;;;;;;;18.65;98.28;101579.16;5047199;28;20024;-61
2023/06/10 02:56:57;;;;;;;7.05;5.13;;;;;;;18.65;98.05;101581.81;5046721;28;20029;-60
2023/06/10 02:59:22;;;;;;;8.00;5.03;;;;;;;18.62;98.31;101585.53;5046948;28;20037;-60
2023/06/10 03:01:48;;;;;;;9.18;5.22;;;;;;;18.68;97.54;101585.19;5045297;28;20510;-59
2023/06/10 03:04:14;;;;;;;14.43;5.47;;;;;;;18.65;97.30;101582.69;5046888;28;20109;-62
2023/06/10 03:06:40;;;;;;;8.27;5.40;;;;;;;18.55;98.00;101585.00;5046455;28;20041;-60
2023/06/10 03:09:10;;;;;;;9.18;5.25;;;;;;;18.51;98.57;101587.94;5046469;28;20025;-60
2023/06/10 03:11:35;;;;;;;9.35;5.40;;;;;;;18.46;98.03;101576.66;5046771;28;20032;-57
2023/06/10 03:14:01;;;;;;;10.77;6.00;;;;;;;18.42;98.37;101582.16;5046304;28;20246;-59
2023/06/10 03:16:27;;;;;;;9.90;5.22;;;;;;;18.41;98.41;101583.13;5046566;28;20020;-58
2023/06/10 03:18:52;;;;;;;12.15;5.05;;;;;;;18.41;98.26;101585.78;5046657;28;20025;-58
2023/06/10 03:21:18;;;;;;;6.32;5.05;;;;;;;18.53;97.76;101588.72;5045612;28;20025;-58
2023/06/10 03:23:43;;;;;;;11.80;4.93;;;;;;;18.42;98.52;101589.28;5046566;28;20108;-61
2023/06/10 03:26:09;;;;;;;9.15;5.35;;;;;;;18.43;97.93;101591.03;5046702;28;20028;-59
2023/06/10 03:28:35;;;;;;;7.38;4.95;;;;;;;18.34;98.71;101595.09;5046263;28;20267;-59
2023/06/10 03:31:00;;;;;;;9.07;5.03;;;;;;;18.35;98.72;101588.78;5046058;28;20272;-62
2023/06/10 03:33:26;;;;;;;8.27;5.55;;;;;;;18.38;98.36;101587.75;5046344;28;20028;-59
2023/06/10 03:35:51;;;;;;;8.07;5.00;;;;;;;18.32;98.44;101591.63;5045220;28;20392;-59
2023/06/10 03:38:17;;;;;;;7.90;4.93;;;;;;;18.32;98.56;101607.63;5046103;28;20036;-58
2023/06/10 03:40:42;;;;;;;12.02;4.93;;;;;;;18.34;98.87;101603.09;5044650;28;20569;-61
2023/06/10 03:43:08;;;;;;;8.20;4.97;;;;;;;18.30;98.38;101601.50;5046361;28;20118;-58
2023/06/10 03:45:33;;;;;;;6.57;5.20;;;;;;;18.30;98.92;101606.84;5046167;28;20013;-58
2023/06/10 03:48:00;;;;;;;13.02;5.03;;;;;;;18.30;98.81;101613.06;5045767;28;20100;-61
2023/06/10 03:50:26;;;;;;;7.45;4.72;;;;;;;18.33;98.43;101605.84;5044288;28;20080;-58
2023/06/10 03:52:51;;;;;;;6.88;4.88;;;;;;;18.34;98.26;101611.09;5045731;28;20687;-60
2023/06/10 03:55:17;;;;;;;10.63;4.80;;;;;;;18.33;98.42;101613.84;5046059;28;20100;-58
2023/06/10 03:57:43;;;;;;;9.13;5.25;;;;;;;18.30;98.92;101614.84;5045915;28;20090;-62
2023/06/10 04:00:12;;;;;;;11.68;4.95;;;;;;;18.33;98.67;101606.69;5046254;28;20033;-59
2023/06/10 04:02:37;;;;;;;;;;;;;;;18.35;99.31;101610.13;5046871;28;20024;-58
2023/06/10 04:05:02;;;;;;;10.63;5.60;;;;;;;18.34;98.70;101615.56;5044985;28;19921;-57
2023/06/10 04:07:28;;;;;;;7.63;4.88;;;;;;;18.39;98.37;101614.34;5045702;28;20048;-61
2023/06/10 04:09:53;;;;;;;7.72;5.05;;;;;;;18.40;99.21;101613.44;5044297;28;20435;-57
2023/06/10 04:12:19;;;;;;;11.30;5.28;;;;;;;18.41;98.84;101617.81;5045764;28;20047;-56
2023/06/10 04:14:44;;;;;;;11.23;4.85;;;;;;;18.47;97.82;101613.94;5045360;28;20028;-57
2023/06/10 04:17:10;;;;;;;10.38;4.90;;;;;;;18.46;98.06;101611.34;5046161;28;20468;-59
2023/06/10 04:19:35;;;;;;;8.40;5.15;;;;;;;18.42;98.56;101616.84;5044353;28;20021;-59
2023/06/10 04:22:03;;;;;;;12.27;5.18;;;;;;;18.55;99.01;101621.53;5044658;28;20579;-60
2023/06/10 04:24:28;;;;;;;9.18;4.88;;;;;;;18.53;99.24;101626.94;5045362;28;20525;-57
2023/06/10 04:26:54;;;;;;;8.10;4.82;;;;;;;18.54;98.34;101625.13;5045172;28;20028;-60
2023/06/10 04:29:19;;;;;;;8.25;4.68;;;;;;;18.56;98.55;101628.56;5045498;28;20142;-59
2023/06/10 04:31:46;;;;;;;9.68;5.30;;;;;;;18.65;98.20;101628.06;5045370;28;20390;-59
2023/06/10 04:34:12;;;;;;;10.35;5.28;;;;;;;18.62;98.50;101635.38;5045388;28;20059;-58
2023/06/10 04:36:37;;;;;;;12.15;5.18;;;;;;;18.64;99.04;101637.03;5044699;28;20111;-59
2023/06/10 04:39:03;;;;;;;10.02;5.15;;;;;;;18.67;99.42;101625.31;5045020;28;20025;-59
2023/06/10 04:41:28;;;;;;;9.45;5.00;;;;;;;18.84;98.97;101632.34;5044958;28;20467;-56
2023/06/10 04:43:53;;;;;;;7.40;5.10;;;;;;;18.82;99.49;101636.94;5045318;28;20045;-58
2023/06/10 04:46:19;;;;;;;6.10;5.10;;;;;;;18.85;99.19;101636.78;5045443;28;20032;-61
2023/06/10 04:48:46;;;;;;;8.57;5.22;;;;;;;18.89;99.49;101640.97;5044684;28;20581;-58
2023/06/10 04:51:13;;;;;;;11.25;5.50;;;;;;;18.90;99.14;101632.00;5044754;28;20025;-58
2023/06/10 04:53:38;;;;;;;8.20;5.38;;;;;;;18.90;100.00;101642.69;5045142;28;20105;-61
2023/06/10 04:56:03;;;;;;;7.90;5.05;;;;;;;18.96;99.94;101635.31;5026286;28;20104;-60
2023/06/10 04:58:29;;;;;;;8.82;4.93;;;;;;;19.02;99.43;101641.13;5044631;28;20045;-59
2023/06/10 05:00:54;;;;;;;6.50;5.00;;;;;;;19.15;99.04;101640.47;5044667;28;20060;-60
2023/06/10 05:03:20;;;;;;;12.45;5.25;;;;;;;19.10;99.62;101635.38;5044970;28;20032;-59
2023/06/10 05:05:45;;;;;;;9.63;5.28;;;;;;;19.08;100.00;101642.63;5043675;28;20397;-59
2023/06/10 05:08:10;;;;;;;11.88;5.55;;;;;;;19.10;100.00;101640.72;5044924;28;20040;-58
2023/06/10 05:10:36;;;;;;;7.93;4.90;;;;;;;19.25;99.40;101640.78;5044768;28;20421;-59
2023/06/10 05:13:02;;;;;;;10.30;5.18;;;;;;;19.29;99.43;101643.19;5044842;28;20578;-59
2023/06/10 05:15:28;;;;;;;8.73;5.18;;;;;;;19.47;98.57;101634.19;5044622;28;20460;-59
2023/06/10 05:17:53;;;;;;;7.70;5.05;;;;;;;19.50;98.93;101640.22;5044411;28;20063;-60
2023/06/10 05:20:19;;;;;;;8.18;5.30;;;;;;;19.55;98.73;101637.25;5043624;28;20387;-60
2023/06/10 05:22:45;;;;;;;12.40;5.88;;;;;;;19.57;98.88;101635.38;5044658;28;20387;-59
2023/06/10 05:25:10;;;;;;;6.03;4.78;;;;;;;19.61;98.95;101642.25;5044149;28;20021;-59
2023/06/10 05:27:35;;;;;;;9.85;4.93;;;;;;;19.67;98.74;101631.19;5044098;28;20063;-60
2023/06/10 05:30:02;;;;;;;9.77;5.45;;;;;;;19.74;98.48;101637.00;5044051;28;20025;-61
2023/06/10 05:32:27;;;;;;;12.15;5.28;;;;;;;19.86;97.66;101638.09;5044970;28;20028;-58
2023/06/10 05:34:53;;;;;;;15.95;5.50;;;;;;;19.94;97.04;101635.81;5043588;28;20029;-60
2023/06/10 05:37:18;;;;;;;8.05;4.95;;;;;;;20.07;96.63;101632.41;5043986;28;20483;-59
2023/06/10 05:39:43;;;;;;;10.23;5.38;;;;;;;20.07;97.05;101630.59;5044040;28;20451;-59
2023/06/10 05:42:09;;;;;;;8.02;5.05;;;;;;;20.19;96.14;101631.66;5044328;28;20036;-58
2023/06/10 05:44:34;;;;;;;9.75;5.68;;;;;;;20.22;96.39;101635.94;5042874;28;20025;-58
2023/06/10 05:46:59;;;;;;;6.60;4.95;;;;;;;20.33;96.61;101637.94;5043896;28;20380;-57
2023/06/10 05:49:25;;;;;;;6.72;4.80;;;;;;;20.40;96.35;101643.75;5043257;28;20024;-58
2023/06/10 05:51:52;;;;;;;8.40;5.70;;;;;;;20.47;95.99;101644.25;5043620;28;20017;-59
2023/06/10 05:54:17;;;;;;;11.75;5.30;;;;;;;20.55;96.93;101647.28;5044320;28;20468;-59
2023/06/10 05:56:43;;;;;;;7.10;5.38;;;;;;;20.61;96.87;101651.38;5043568;28;20126;-62
2023/06/10 05:59:08;;;;;;;11.77;5.55;;;;;;;20.73;96.26;101655.09;5044239;28;20021;-59
2023/06/10 06:01:33;;;;;;;8.23;5.30;;;;;;;20.70;96.99;101651.66;5043865;28;20120;-58
2023/06/10 06:03:59;;;;;;;7.40;5.07;;;;;;;20.81;96.96;101652.78;5043850;28;20055;-63
2023/06/10 06:06:24;;;;;;;7.95;5.28;;;;;;;20.86;96.36;101645.31;5043228;28;20049;-61
2023/06/10 06:08:50;;;;;;;8.25;5.45;;;;;;;20.90;96.82;101641.53;5043680;28;20155;-59
2023/06/10 06:11:15;;;;;;;8.65;5.20;;;;;;;21.02;96.45;101644.34;5043417;28;20025;-59
2023/06/10 06:13:41;;;;;;;8.70;5.28;;;;;;;21.15;95.64;101642.56;5044564;28;20017;-57
2023/06/10 06:16:07;;;;;;;11.20;5.93;;;;;;;21.26;94.41;101643.66;5043649;28;20446;-60
2023/06/10 06:18:32;;;;;;;11.15;5.45;;;;;;;21.41;93.14;101639.09;5042465;28;20028;-59
2023/06/10 06:20:58;;;;;;;10.43;5.47;;;;;;;21.48;90.60;101643.09;5042902;28;20032;-57
2023/06/10 06:23:23;;;;;;;13.63;5.15;;;;;;;21.59;89.66;101648.56;5043610;28;20013;-59
2023/06/10 06:25:48;;;;;;;9.80;5.07;;;;;;;21.70;88.20;101649.66;5043411;28;20053;-59
2023/06/10 06:28:14;;;;;;;8.30;5.10;;;;;;;21.74;87.68;101651.19;5043802;28;20035;-59
2023/06/10 06:30:39;;;;;;;9.70;5.53;;;;;;;21.92;85.75;101646.41;5044127;28;20052;-59
2023/06/10 06:33:05;;;;;;;12.40;5.03;;;;;;;21.98;84.34;101649.59;5043511;28;20051;-62
2023/06/10 06:35:32;;;;;;;12.73;4.88;;;;;;;22.03;84.35;101645.63;5042951;28;20102;-59
2023/06/10 06:37:58;;;;;;;9.73;5.07;;;;;;;22.08;84.35;101648.84;5046593;28;20056;-59
2023/06/10 06:40:24;;;;;;;10.18;5.07;;;;;;;22.16;83.71;101644.78;5047047;28;20029;-60
2023/06/10 06:42:49;;;;;;;7.75;5.40;;;;;;;22.17;84.27;101655.41;5047156;28;20082;-60
2023/06/10 06:45:14;;;;;;;8.80;5.15;;;;;;;22.30;82.39;101652.69;5047298;28;20025;-63
2023/06/10 06:47:40;;;;;;;13.70;4.95;;;;;;;22.34;80.74;101653.34;5047879;28;20028;-60
2023/06/10 06:50:06;;;;;;;8.63;4.93;;;;;;;22.29;81.05;101650.13;5046111;28;20027;-60
2023/06/10 06:52:31;;;;;;;6.03;4.45;;;;;;;22.46;79.19;101655.13;5046920;28;20074;-58
2023/06/10 06:54:56;;;;;;;6.55;4.40;;;;;;;22.66;78.02;101652.88;5046559;28;20151;-60
2023/06/10 06:57:23;;;;;;;13.70;5.07;;;;;;;22.71;78.57;101658.78;5046719;28;20055;-61
2023/06/10 06:59:48;;;;;;;5.97;4.57;;;;;;;22.86;78.27;101663.97;5047074;28;20471;-59
2023/06/10 07:02:13;;;;;;;9.50;4.78;;;;;;;22.94;78.06;101658.88;5046974;28;20040;-59
2023/06/10 07:04:40;;;;;;;13.18;5.35;;;;;;;22.97;77.65;101661.34;5046450;28;20383;-60
2023/06/10 07:07:08;;;;;;;9.57;4.78;;;;;;;23.06;77.33;101662.50;5046399;28;20181;-60
2023/06/10 07:09:33;;;;;;;8.70;4.65;;;;;;;23.10;74.81;101660.44;5046722;28;20056;-62
2023/06/10 07:11:58;;;;;;;11.52;4.80;;;;;;;23.26;73.13;101665.53;5046776;28;20094;-62
2023/06/10 07:14:24;;;;;;;14.88;4.93;;;;;;;23.43;72.22;101666.13;5045641;28;20527;-60
2023/06/10 07:16:49;;;;;;;9.45;4.95;;;;;;;23.40;72.73;101664.53;5046398;28;20039;-61
2023/06/10 07:19:15;;;;;;;6.97;4.70;;;;;;;23.43;73.15;101656.22;5045836;28;20025;-63
2023/06/10 07:21:40;;;;;;;7.68;4.85;;;;;;;23.54;72.93;101662.63;5047083;28;20025;-61
2023/06/10 07:24:05;;;;;;;8.48;4.60;;;;;;;23.59;72.80;101665.78;5045918;28;20025;-61
2023/06/10 07:26:31;;;;;;;7.60;4.68;;;;;;;23.70;72.12;101663.16;5046567;28;20032;-60
2023/06/10 07:28:56;;;;;;;9.73;4.85;;;;;;;23.83;71.16;101663.03;5046462;28;20032;-63
2023/06/10 07:31:23;;;;;;;7.07;4.75;;;;;;;23.90;70.56;101660.72;5046562;28;20100;-60
2023/06/10 07:33:48;;;;;;;5.82;4.90;;;;;;;23.98;70.70;101657.44;5045806;28;20444;-61
2023/06/10 07:36:13;;;;;;;6.72;4.38;;;;;;;24.02;70.22;101656.19;5045627;28;20032;-60
2023/06/10 07:38:41;;;;;;;10.85;5.00;;;;;;;24.16;68.83;101660.53;5046310;28;20025;-61
2023/06/10 07:41:06;;;;;;;9.55;4.80;;;;;;;24.07;68.22;101658.53;5046160;28;20021;-62
2023/06/10 07:43:31;;;;;;;6.50;3.95;;;;;;;24.23;67.51;101664.47;5046272;28;20040;-62
2023/06/10 07:45:57;;;;;;;7.45;4.35;;;;;;;24.37;67.00;101665.19;5045906;28;20052;-63
2023/06/10 07:48:22;;;;;;;8.73;4.53;;;;;;;24.46;68.43;101663.59;5045585;28;20025;-63
2023/06/10 07:50:47;;;;;;;9.35;4.38;;;;;;;24.60;66.34;101671.41;5045188;28;20043;-61
2023/06/10 07:53:12;;;;;;;9.60;4.50;;;;;;;24.63;65.03;101675.72;5045944;28;20078;-62
2023/06/10 07:55:38;;;;;;;10.40;4.72;;;;;;;24.74;65.29;101674.81;5046079;28;20025;-59
2023/06/10 07:58:03;;;;;;;6.05;4.90;;;;;;;24.79;66.18;101667.22;5045448;28;20033;-59
2023/06/10 08:00:28;;;;;;;9.55;4.65;;;;;;;24.90;66.35;101662.81;5046008;28;20100;-60
2023/06/10 08:02:54;;;;;;;6.63;4.40;;;;;;;24.88;64.71;101668.31;5045297;28;20021;-58
2023/06/10 08:05:20;;;;;;;7.70;4.20;;;;;;;24.97;65.31;101667.56;5044505;28;20067;-59
2023/06/10 08:07:45;;;;;;;9.40;4.43;;;;;;;25.08;65.43;101665.81;5045439;28;20036;-59
2023/06/10 08:10:11;;;;;;;10.05;4.70;;;;;;;25.28;65.76;101668.69;5045571;28;20029;-59
2023/06/10 08:12:36;;;;;;;14.23;4.93;;;;;;;25.28;70.24;101664.13;5045538;28;20384;-59
2023/06/10 08:15:04;;;;;;;6.53;4.80;;;;;;;25.45;70.27;101665.44;5045399;28;20036;-62
2023/06/10 08:17:30;;;;;;;8.68;5.22;;;;;;;25.52;69.08;101670.31;5045432;28;20474;-60
2023/06/10 08:19:55;;;;;;;7.45;4.43;;;;;;;25.51;64.73;101661.34;5045130;28;20072;-61
2023/06/10 08:22:21;;;;;;;6.03;4.70;;;;;;;25.51;67.83;101668.56;5045149;28;20484;-60
2023/06/10 08:24:46;;;;;;;9.20;5.30;;;;;;;25.29;72.08;101665.00;5044713;28;20067;-60
2023/06/10 08:27:11;;;;;;;12.40;5.03;;;;;;;25.57;71.11;101663.53;5045639;28;20052;-62
2023/06/10 08:29:37;;;;;;;9.32;4.88;;;;;;;25.67;70.61;101662.78;5045410;28;20056;-62
2023/06/10 08:32:03;;;;;;;6.68;4.60;;;;;;;25.64;66.60;101658.47;5045004;28;20036;-61
2023/06/10 08:34:28;;;;;;;9.90;5.70;;;;;;;25.58;68.10;101669.75;5044460;28;20029;-63
2023/06/10 08:36:55;;;;;;;10.05;6.00;;;;;;;25.21;72.01;101663.81;5044627;28;20035;-62
2023/06/10 08:39:21;;;;;;;10.52;5.75;;;;;;;25.45;72.47;101668.13;5044677;28;20025;-61
2023/06/10 08:42:13;;;;;;;11.75;4.97;;;;;;;25.64;73.34;101666.56;5044503;28;20021;-59
2023/06/10 08:44:40;;;;;;;9.75;5.15;;;;;;;25.63;73.66;101675.66;5043787;28;20427;-59
2023/06/10 08:47:15;;;;;;;8.60;4.60;;;;;;;25.95;70.61;101666.59;5044625;28;20032;-61
2023/06/10 08:49:44;;;;;;;12.13;5.68;;;;;;;25.93;71.58;101674.00;5044368;28;20104;-59
2023/06/10 08:52:14;;;;;;;7.25;5.15;;;;;;;25.97;69.68;101672.75;5044905;28;20035;-61
2023/06/10 08:54:43;;;;;;;9.35;4.72;;;;;;;26.07;69.70;101677.34;5045916;28;20125;-60
2023/06/10 08:57:09;;;;;;;11.60;5.07;;;;;;;25.92;71.38;101675.00;5044631;28;20439;-59
2023/06/10 08:59:34;;;;;;;10.25;5.22;;;;;;;26.10;71.05;101671.69;5044702;28;20021;-61
2023/06/10 09:02:01;;;;;;;11.88;5.75;;;;;;;26.34;68.12;101670.53;5044762;28;20032;-62
2023/06/10 09:04:26;;;;;;;6.95;4.53;;;;;;;26.27;68.78;101662.06;5043848;28;20094;-59
2023/06/10 09:06:53;;;;;;;11.60;5.28;;;;;;;26.09;70.50;101672.66;5044132;28;20507;-62
2023/06/10 09:09:20;;;;;;;8.10;5.22;;;;;;;26.25;69.78;101664.06;5044362;28;20021;-59
2023/06/10 09:11:45;;;;;;;9.50;5.03;;;;;;;26.47;67.51;101659.47;5044005;28;20386;-59
2023/06/10 09:14:12;;;;;;;9.23;5.00;;;;;;;26.45;64.95;101662.31;5044560;28;20021;-59
2023/06/10 09:16:38;;;;;;;8.68;5.00;;;;;;;26.66;62.20;101661.38;5045060;28;20017;-61
2023/06/10 09:19:07;;;;;;;9.57;5.38;;;;;;;26.60;60.29;101670.91;5043405;28;20104;-58
2023/06/10 09:21:33;;;;;;;6.75;5.00;;;;;;;26.82;61.20;101682.44;5042973;28;20498;-60
2023/06/10 09:23:58;;;;;;;5.32;4.43;;;;;;;27.08;61.30;101673.84;5044020;28;20009;-61
2023/06/10 09:26:27;;;;;;;6.70;4.65;;;;;;;27.21;59.35;101673.56;5043098;28;20329;-60
2023/06/10 09:29:02;;;;;;;10.77;4.55;;;;;;;27.27;60.20;101671.28;5043855;28;20112;-58
2023/06/10 09:31:28;;;;;;;11.45;4.90;;;;;;;27.21;61.09;101675.44;5044534;28;20029;-63
2023/06/10 09:33:53;;;;;;;8.18;4.43;;;;;;;27.45;60.08;101671.44;5043260;28;20032;-60
2023/06/10 09:36:22;;;;;;;9.90;5.35;;;;;;;27.61;58.60;101669.00;5044204;28;20074;-59
2023/06/10 09:38:49;;;;;;;8.40;4.90;;;;;;;27.31;61.91;101670.00;5043868;28;20483;-60
2023/06/10 09:41:15;;;;;;;11.55;5.25;;;;;;;27.34;61.47;101667.88;5043682;28;20533;-58
2023/06/10 09:43:45;;;;;;;8.88;4.95;;;;;;;27.32;61.76;101677.13;5044370;28;20021;-59
2023/06/10 09:46:20;;;;;;;7.72;4.90;;;;;;;27.43;62.46;101674.28;5044291;28;20036;-58
2023/06/10 09:48:46;;;;;;;10.13;4.80;;;;;;;27.78;59.18;101666.53;5043077;28;20028;-59
2023/06/10 09:51:13;;;;;;;9.85;4.82;;;;;;;27.84;61.18;101667.84;5044337;28;20100;-59
2023/06/10 09:53:38;;;;;;;11.65;4.97;;;;;;;27.95;61.36;101669.50;5044101;28;20024;-60
2023/06/10 09:56:05;;;;;;;8.05;4.80;;;;;;;27.69;58.46;101676.41;5042495;28;20021;-60
2023/06/10 09:58:42;;;;;;;8.30;5.05;;;;;;;27.34;58.54;101669.72;5043617;28;20423;-59
2023/06/10 10:01:11;;;;;;;10.38;5.18;;;;;;;27.00;59.20;101671.84;5043782;28;20556;-60
2023/06/10 10:03:47;;;;;;;12.88;5.13;;;;;;;27.24;60.86;101672.44;5043550;28;20036;-59
2023/06/10 10:06:15;;;;;;;8.20;5.13;;;;;;;27.82;57.01;101669.81;5043702;28;20068;-61
2023/06/10 10:08:41;;;;;;;13.45;5.13;;;;;;;28.14;57.31;101676.69;5044025;28;20056;-60
2023/06/10 10:11:06;;;;;;;5.63;4.72;;;;;;;28.37;57.25;101669.09;5044016;28;20021;-62
2023/06/10 10:13:35;;;;;;;9.05;5.03;;;;;;;28.26;56.04;101664.69;5047639;28;20025;-61
2023/06/10 10:16:11;;;;;;;8.45;5.03;;;;;;;28.51;55.26;101667.72;5046015;28;20025;-59
2023/06/10 10:18:39;;;;;;;8.55;5.07;;;;;;;28.35;55.79;101671.09;5046212;28;20028;-63
2023/06/10 10:21:06;;;;;;;12.90;5.40;;;;;;;28.56;56.73;101666.44;5047496;28;20031;-60
2023/06/10 10:23:35;;;;;;;11.43;5.10;;;;;;;28.62;54.49;101660.38;5047490;28;20040;-60
2023/06/10 10:26:05;;;;;;;8.43;5.13;;;;;;;28.67;57.44;101662.63;5045692;28;20021;-58
2023/06/10 10:28:47;;;;;;;6.95;5.00;;;;;;;28.81;55.19;101661.28;5047397;28;20029;-61
2023/06/10 10:31:16;;;;;;;8.50;4.95;;;;;;;28.44;59.06;101668.50;5046172;28;20025;-64
2023/06/10 10:34:02;;;;;;;6.63;4.70;;;;;;;28.72;57.60;101657.63;5046503;28;20198;-60
2023/06/10 10:36:28;;;;;;;9.18;4.80;;;;;;;28.71;55.91;101654.03;5062511;28;20060;-61
2023/06/10 10:38:54;;;;;;;8.25;4.00;;;;;;;29.11;54.14;101659.22;5047000;28;20053;-62
2023/06/10 10:41:20;;;;;;;9.95;4.78;;;;;;;29.45;52.75;101644.91;5047540;28;20032;-60
2023/06/10 10:43:46;;;;;;;9.57;4.95;;;;;;;29.25;52.25;101653.22;5045603;28;20028;-60
2023/06/10 10:46:14;;;;;;;8.50;4.80;;;;;;;29.37;54.91;101642.13;5046113;28;20024;-60
2023/06/10 10:48:41;;;;;;;8.55;4.57;;;;;;;29.41;54.31;101643.53;5046766;28;20021;-62
2023/06/10 10:51:07;;;;;;;7.60;4.53;;;;;;;29.35;52.33;101641.44;5046688;28;20040;-61
2023/06/10 10:53:32;;;;;;;9.02;4.90;;;;;;;29.09;50.66;101640.38;5046985;28;20025;-62
2023/06/10 10:56:12;;;;;;;7.03;4.35;;;;;;;29.22;52.04;101639.13;5045652;28;20496;-63
2023/06/10 10:58:38;;;;;;;9.85;5.07;;;;;;;29.36;54.60;101635.88;5047140;28;20069;-61
2023/06/10 11:01:17;;;;;;;6.85;4.50;;;;;;;29.60;50.08;101637.09;5045381;28;20029;-63
2023/06/10 11:03:49;;;;;;;7.80;4.75;;;;;;;29.38;50.12;101633.00;5046145;28;20025;-66
2023/06/10 11:06:16;;;;;;;7.70;4.43;;;;;;;29.67;50.40;101626.41;5046596;28;20461;-61
2023/06/10 11:08:41;;;;;;;14.93;5.00;;;;;;;29.76;47.47;101627.31;5046757;28;20036;-59
2023/06/10 11:11:20;;;;;;;5.70;4.43;;;;;;;29.76;47.53;101630.03;5046564;28;20391;-57
2023/06/10 11:14:00;;;;;;;6.13;3.95;;;;;;;29.64;48.49;101637.59;5046273;28;20268;-59
2023/06/10 11:16:27;;;;;;;13.52;4.82;;;;;;;29.94;49.60;101627.25;5028702;28;20021;-63
2023/06/10 11:18:56;;;;;;;6.05;4.03;;;;;;;30.15;48.97;101634.13;5045491;28;20024;-58